createdAt,value
2022-08-25T00:00:50.296Z,18.30
2022-08-25T00:03:17.584Z,18.25
2022-08-25T00:05:45.488Z,18.15
2022-08-25T00:08:12.193Z,18.09
2022-08-25T00:10:39.363Z,18.09
2022-08-25T00:13:07.617Z,18.13
2022-08-25T00:15:34.763Z,18.20
2022-08-25T00:18:02.060Z,18.27
2022-08-25T00:20:29.924Z,18.33
2022-08-25T00:22:56.635Z,18.38
2022-08-25T00:25:23.590Z,18.40
2022-08-25T00:27:52.448Z,18.43
2022-08-25T00:30:20.578Z,18.48
2022-08-25T00:32:56.806Z,18.46
2022-08-25T00:35:25.969Z,18.36
2022-08-25T00:37:52.722Z,18.26
2022-08-25T00:40:20.243Z,18.18
2022-08-25T00:42:47.083Z,18.12
2022-08-25T00:45:13.737Z,18.06
2022-08-25T00:47:41.887Z,18.05
2022-08-25T00:50:11.176Z,18.07
2022-08-25T00:52:41.659Z,18.10
2022-08-25T00:55:14.614Z,18.13
2022-08-25T00:57:45.701Z,18.09
2022-08-25T01:00:17.547Z,18.07
2022-08-25T01:02:46.079Z,18.08
2022-08-25T01:05:13.169Z,18.08
2022-08-25T01:07:44.638Z,18.07
2022-08-25T01:10:13.420Z,18.04
2022-08-25T01:12:41.209Z,18.02
2022-08-25T01:15:10.418Z,17.98
2022-08-25T01:17:47.571Z,17.96
2022-08-25T01:20:15.278Z,17.93
2022-08-25T01:22:43.317Z,17.91
2022-08-25T01:25:25.779Z,17.94
2022-08-25T01:27:52.740Z,17.93
2022-08-25T01:30:19.800Z,17.88
2022-08-25T01:32:46.471Z,17.75
2022-08-25T01:35:14.170Z,17.63
2022-08-25T01:37:40.834Z,17.55
2022-08-25T01:40:10.352Z,17.54
2022-08-25T01:42:46.875Z,17.50
2022-08-25T01:45:13.958Z,17.43
2022-08-25T01:47:41.081Z,17.36
2022-08-25T01:50:08.264Z,17.30
2022-08-25T01:52:49.827Z,17.32
2022-08-25T01:55:18.418Z,17.33
2022-08-25T01:57:45.234Z,17.37
2022-08-25T02:00:14.631Z,17.28
2022-08-25T02:02:42.769Z,17.18
2022-08-25T02:05:13.996Z,17.12
2022-08-25T02:07:42.470Z,17.10
2022-08-25T02:10:10.631Z,17.10
2022-08-25T02:12:38.997Z,17.15
2022-08-25T02:15:07.495Z,17.17
2022-08-25T02:17:36.660Z,17.22
2022-08-25T02:20:04.513Z,17.28
2022-08-25T02:22:31.182Z,17.32
2022-08-25T02:24:57.810Z,17.34
2022-08-25T02:27:24.571Z,17.30
2022-08-25T02:29:52.700Z,17.30
2022-08-25T02:32:19.428Z,17.29
2022-08-25T02:34:46.134Z,17.25
2022-08-25T02:37:12.868Z,17.21
2022-08-25T02:39:39.826Z,17.20
2022-08-25T02:42:06.854Z,17.16
2022-08-25T02:44:35.458Z,17.02
2022-08-25T02:47:04.011Z,16.93
2022-08-25T02:49:32.237Z,16.86
2022-08-25T02:52:00.820Z,16.87
2022-08-25T02:54:28.643Z,16.87
2022-08-25T02:56:55.503Z,16.88
2022-08-25T02:59:22.204Z,16.89
2022-08-25T03:01:49.086Z,16.91
2022-08-25T03:04:17.873Z,16.93
2022-08-25T03:06:45.362Z,16.88
2022-08-25T03:09:12.771Z,16.78
2022-08-25T03:11:39.767Z,16.71
2022-08-25T03:14:09.718Z,16.68
2022-08-25T03:16:36.637Z,16.64
2022-08-25T03:19:04.387Z,16.66
2022-08-25T03:21:34.231Z,16.67
2022-08-25T03:24:01.063Z,16.66
2022-08-25T03:26:46.455Z,16.65
2022-08-25T03:29:13.859Z,16.64
2022-08-25T03:31:41.047Z,16.63
2022-08-25T03:34:10.377Z,16.59
2022-08-25T03:36:38.450Z,16.56
2022-08-25T03:39:06.177Z,16.55
2022-08-25T03:41:32.883Z,16.52
2022-08-25T03:44:01.018Z,16.54
2022-08-25T03:46:29.838Z,16.53
2022-08-25T03:48:57.617Z,16.54
2022-08-25T03:51:26.298Z,16.56
2022-08-25T03:53:55.449Z,16.62
2022-08-25T03:56:22.103Z,16.59
2022-08-25T03:58:48.869Z,16.55
2022-08-25T04:01:16.686Z,16.52
2022-08-25T04:03:44.958Z,16.45
2022-08-25T04:06:11.996Z,16.38
2022-08-25T04:08:38.881Z,16.36
2022-08-25T04:11:10.229Z,16.39
2022-08-25T04:13:37.454Z,16.37
2022-08-25T04:16:04.570Z,16.37
2022-08-25T04:18:31.217Z,16.36
2022-08-25T04:21:05.567Z,16.35
2022-08-25T04:23:32.253Z,16.28
2022-08-25T04:25:58.942Z,16.24
2022-08-25T04:28:27.348Z,16.18
2022-08-25T04:30:54.257Z,16.12
2022-08-25T04:33:21.140Z,16.09
2022-08-25T04:35:49.127Z,16.07
2022-08-25T04:38:15.872Z,15.99
2022-08-25T04:40:42.543Z,15.92
2022-08-25T04:43:09.284Z,15.84
2022-08-25T04:45:38.432Z,15.82
2022-08-25T04:48:05.265Z,15.74
2022-08-25T04:50:32.042Z,15.72
2022-08-25T04:53:00.274Z,15.76
2022-08-25T04:55:27.097Z,15.83
2022-08-25T04:57:53.740Z,15.89
2022-08-25T05:00:20.469Z,15.94
2022-08-25T05:02:48.635Z,16.01
2022-08-25T05:05:16.198Z,16.06
2022-08-25T05:07:42.845Z,16.10
2022-08-25T05:10:09.705Z,16.15
2022-08-25T05:12:36.370Z,16.19
2022-08-25T05:15:24.029Z,16.24
2022-08-25T05:18:05.498Z,16.29
2022-08-25T05:20:32.207Z,16.33
2022-08-25T05:22:59.237Z,16.39
2022-08-25T05:25:25.928Z,16.40
2022-08-25T05:27:52.622Z,16.41
2022-08-25T05:30:19.386Z,16.43
2022-08-25T05:32:46.065Z,16.40
2022-08-25T05:35:15.575Z,16.42
2022-08-25T05:37:42.549Z,16.45
2022-08-25T05:40:10.375Z,16.53
2022-08-25T05:42:37.355Z,16.62
2022-08-25T05:45:04.168Z,16.67
2022-08-25T05:47:31.034Z,16.70
2022-08-25T05:49:58.126Z,16.71
2022-08-25T05:52:28.266Z,16.75
2022-08-25T05:54:54.987Z,16.80
2022-08-25T05:57:21.676Z,16.83
2022-08-25T05:59:48.545Z,16.85
2022-08-25T06:02:33.654Z,16.88
2022-08-25T06:05:00.329Z,16.94
2022-08-25T06:07:28.633Z,17.03
2022-08-25T06:09:55.317Z,17.10
2022-08-25T06:12:22.243Z,17.24
2022-08-25T06:14:51.625Z,17.40
2022-08-25T06:17:18.294Z,17.51
2022-08-25T06:19:44.917Z,17.62
2022-08-25T06:22:12.529Z,17.68
2022-08-25T06:24:40.888Z,17.81
2022-08-25T06:27:07.586Z,17.96
2022-08-25T06:29:34.519Z,18.09
2022-08-25T06:32:01.205Z,18.22
2022-08-25T06:34:27.953Z,18.36
2022-08-25T06:36:54.646Z,18.47
2022-08-25T06:39:22.797Z,18.59
2022-08-25T06:41:52.829Z,18.75
2022-08-25T06:44:19.546Z,18.92
2022-08-25T06:46:46.408Z,19.03
2022-08-25T06:49:13.301Z,19.18
2022-08-25T06:51:41.789Z,19.30
2022-08-25T06:54:10.249Z,19.44
2022-08-25T06:56:37.808Z,19.57
2022-08-25T06:59:07.658Z,19.66
2022-08-25T07:01:34.988Z,19.77
2022-08-25T07:04:05.726Z,19.84
2022-08-25T07:06:37.786Z,19.96
2022-08-25T07:09:05.900Z,20.08
2022-08-25T07:11:34.367Z,20.22
2022-08-25T07:14:01.968Z,20.37
2022-08-25T07:16:31.504Z,20.51
2022-08-25T07:19:00.121Z,20.64
2022-08-25T07:21:33.164Z,20.78
2022-08-25T07:24:00.967Z,20.90
2022-08-25T07:26:38.972Z,21.06
2022-08-25T07:29:09.622Z,21.16
2022-08-25T07:31:38.253Z,21.28
2022-08-25T07:34:24.289Z,21.45
2022-08-25T07:36:52.524Z,21.61
2022-08-25T07:39:21.877Z,21.77
2022-08-25T07:41:52.408Z,21.87
2022-08-25T07:44:20.871Z,22.03
2022-08-25T07:46:50.178Z,22.20
2022-08-25T07:49:17.320Z,22.37
2022-08-25T07:52:05.482Z,22.52
2022-08-25T07:54:34.137Z,22.66
2022-08-25T07:57:01.556Z,22.77
2022-08-25T07:59:28.385Z,22.91
2022-08-25T08:01:56.411Z,23.00
2022-08-25T08:04:23.077Z,23.07
2022-08-25T08:06:49.980Z,23.12
2022-08-25T08:09:16.745Z,23.25
2022-08-25T08:11:53.696Z,23.33
2022-08-25T08:14:21.165Z,23.36
2022-08-25T08:16:47.981Z,23.51
2022-08-25T08:19:16.425Z,23.67
2022-08-25T08:21:43.856Z,23.80
2022-08-25T08:24:25.053Z,23.88
2022-08-25T08:26:58.949Z,24.05
2022-08-25T08:29:26.354Z,24.17
2022-08-25T08:31:53.538Z,24.34
2022-08-25T08:34:24.736Z,24.55
2022-08-25T08:36:51.695Z,24.79
2022-08-25T08:39:18.497Z,24.88
2022-08-25T08:42:16.841Z,24.97
2022-08-25T08:45:02.631Z,25.09
2022-08-25T08:47:43.405Z,25.21
2022-08-25T08:50:30.780Z,25.43
2022-08-25T08:53:11.337Z,25.56
2022-08-25T08:55:42.717Z,25.71
2022-08-25T08:58:14.894Z,25.88
2022-08-25T09:00:52.371Z,26.03
2022-08-25T09:03:29.491Z,26.11
2022-08-25T09:06:02.653Z,26.14
2022-08-25T09:08:30.972Z,26.16
2022-08-25T09:11:03.228Z,26.31
2022-08-25T09:13:45.511Z,26.49
2022-08-25T09:16:37.623Z,26.54
2022-08-25T09:19:21.085Z,26.73
2022-08-25T09:21:57.816Z,26.98
2022-08-25T09:24:47.113Z,27.21
2022-08-25T09:27:22.826Z,27.38
2022-08-25T09:30:00.217Z,27.49
2022-08-25T09:32:31.173Z,27.56
2022-08-25T09:34:59.465Z,27.60
2022-08-25T09:37:28.316Z,27.67
2022-08-25T09:39:55.145Z,27.78
2022-08-25T09:42:49.819Z,27.68
2022-08-25T09:45:32.349Z,27.73
2022-08-25T09:47:58.962Z,27.84
2022-08-25T09:50:32.275Z,28.02
2022-08-25T09:53:17.002Z,28.20
2022-08-25T09:55:48.441Z,28.22
2022-08-25T09:58:19.739Z,28.15
2022-08-25T10:01:03.181Z,28.29
2022-08-25T10:03:36.670Z,28.43
2022-08-25T10:06:07.699Z,28.46
2022-08-25T10:08:56.826Z,28.56
2022-08-25T10:11:33.725Z,28.66
2022-08-25T10:14:03.026Z,28.72
2022-08-25T10:16:36.147Z,28.89
2022-08-25T10:19:08.307Z,28.97
2022-08-25T10:21:37.436Z,29.07
2022-08-25T10:24:07.621Z,29.24
2022-08-25T10:26:47.733Z,29.33
2022-08-25T10:29:32.538Z,29.37
2022-08-25T10:32:12.164Z,29.46
2022-08-25T10:34:46.302Z,29.51
2022-08-25T10:37:28.584Z,29.56
2022-08-25T10:40:11.171Z,29.61
2022-08-25T10:42:49.588Z,29.65
2022-08-25T10:45:40.199Z,29.58
2022-08-25T10:48:23.814Z,29.79
2022-08-25T10:50:56.757Z,29.93
2022-08-25T10:56:11.701Z,29.94
2022-08-25T10:59:09.253Z,29.79
2022-08-25T11:01:58.811Z,29.75
2022-08-25T11:04:32.098Z,29.77
2022-08-25T11:07:08.673Z,29.84
2022-08-25T11:09:41.035Z,30.03
2022-08-25T11:12:15.616Z,30.06
2022-08-25T11:14:49.796Z,30.07
2022-08-25T11:17:20.452Z,30.05
2022-08-25T11:19:50.320Z,30.00
2022-08-25T11:22:23.066Z,30.10
2022-08-25T11:25:18.703Z,30.24
2022-08-25T11:28:02.165Z,30.33
2022-08-25T11:30:29.045Z,30.48
2022-08-25T11:32:56.611Z,30.58
2022-08-25T11:35:28.383Z,30.56
2022-08-25T11:41:11.211Z,30.70
2022-08-25T11:44:08.127Z,30.76
2022-08-25T11:46:47.160Z,30.83
2022-08-25T11:49:39.430Z,30.99
2022-08-25T11:52:30.616Z,31.11
2022-08-25T11:55:11.570Z,31.28
2022-08-25T11:57:39.087Z,31.42
2022-08-25T12:00:40.995Z,31.57
2022-08-25T12:04:01.883Z,31.48
2022-08-25T12:06:34.012Z,31.54
2022-08-25T12:09:21.640Z,31.67
2022-08-25T12:11:55.433Z,31.71
2022-08-25T12:20:19.395Z,31.98
2022-08-25T12:29:16.838Z,31.82
2022-08-25T12:32:04.906Z,31.84
2022-08-25T12:37:56.287Z,31.98
2022-08-25T12:46:39.446Z,32.26
2022-08-25T12:49:28.770Z,32.29
2022-08-25T13:03:57.269Z,32.26
2022-08-25T13:09:49.282Z,32.14
2022-08-25T13:18:23.101Z,32.43
2022-08-25T13:23:42.602Z,32.27
2022-08-25T13:26:14.298Z,32.17
2022-08-25T13:28:50.232Z,32.18
2022-08-25T13:31:22.192Z,32.21
2022-08-25T13:55:31.036Z,31.89
2022-08-25T14:14:05.271Z,31.69
2022-08-25T14:17:16.385Z,31.62
2022-08-25T14:20:29.740Z,31.45
2022-08-25T14:25:42.425Z,31.21
2022-08-25T14:28:14.665Z,31.18
2022-08-25T14:30:46.239Z,31.11
2022-08-25T14:33:16.697Z,31.07
2022-08-25T14:35:47.496Z,31.08
2022-08-25T14:38:15.196Z,31.11
2022-08-25T14:40:44.667Z,31.13
2022-08-25T14:43:12.187Z,31.15
2022-08-25T14:45:50.200Z,31.20
2022-08-25T14:48:26.697Z,31.16
2022-08-25T14:50:56.134Z,31.08
2022-08-25T14:53:24.031Z,31.05
2022-08-25T14:55:54.212Z,31.01
2022-08-25T14:58:34.058Z,30.96
2022-08-25T15:01:01.978Z,30.94
2022-08-25T15:03:47.595Z,31.00
2022-08-25T15:06:24.673Z,31.01
2022-08-25T15:09:11.731Z,31.03
2022-08-25T15:11:42.037Z,31.02
2022-08-25T15:14:11.089Z,31.02
2022-08-25T15:16:42.476Z,31.02
2022-08-25T15:19:16.933Z,31.04
2022-08-25T15:21:46.412Z,31.08
2022-08-25T15:24:17.733Z,31.06
2022-08-25T15:26:56.728Z,31.05
2022-08-25T15:29:26.341Z,31.01
2022-08-25T15:31:53.533Z,30.98
2022-08-25T15:34:21.912Z,30.98
2022-08-25T15:36:51.252Z,31.00
2022-08-25T15:39:19.679Z,31.01
2022-08-25T15:41:49.239Z,30.97
2022-08-25T15:44:16.835Z,30.94
2022-08-25T15:46:51.844Z,30.94
2022-08-25T15:49:23.545Z,30.94
2022-08-25T15:51:52.690Z,30.90
2022-08-25T15:54:21.804Z,30.83
2022-08-25T15:56:48.657Z,30.77
2022-08-25T15:59:16.505Z,30.69
2022-08-25T16:01:46.578Z,30.66
2022-08-25T16:04:18.332Z,30.63
2022-08-25T16:06:54.279Z,30.61
2022-08-25T16:09:23.636Z,30.58
2022-08-25T16:11:56.752Z,30.61
2022-08-25T16:19:48.336Z,30.56
2022-08-25T16:22:16.507Z,30.58
2022-08-25T16:24:44.997Z,30.58
2022-08-25T16:27:13.055Z,30.57
2022-08-25T16:29:41.166Z,30.50
2022-08-25T16:32:08.740Z,30.42
2022-08-25T16:34:36.176Z,30.37
2022-08-25T16:37:03.300Z,30.34
2022-08-25T16:39:32.652Z,30.35
2022-08-25T16:41:59.422Z,30.33
2022-08-25T16:44:26.283Z,30.31
2022-08-25T16:46:56.561Z,30.28
2022-08-25T16:49:24.484Z,30.21
2022-08-25T16:51:56.698Z,30.16
2022-08-25T16:54:44.445Z,30.13
2022-08-25T16:57:13.625Z,30.11
2022-08-25T16:59:42.426Z,30.08
2022-08-25T17:02:11.060Z,30.07
2022-08-25T17:04:37.901Z,30.05
2022-08-25T17:07:06.610Z,30.01
2022-08-25T17:09:34.695Z,29.94
2022-08-25T17:12:01.706Z,29.90
2022-08-25T17:14:29.784Z,29.86
2022-08-25T17:17:01.462Z,29.81
2022-08-25T17:19:28.292Z,29.74
2022-08-25T17:21:55.197Z,29.68
2022-08-25T17:24:29.566Z,29.61
2022-08-25T17:26:59.094Z,29.49
2022-08-25T17:29:26.654Z,29.38
2022-08-25T17:31:54.823Z,29.26
2022-08-25T17:34:23.193Z,29.16
2022-08-25T17:36:50.890Z,29.04
2022-08-25T17:39:22.306Z,28.92
2022-08-25T17:41:49.953Z,28.79
2022-08-25T17:44:17.246Z,28.68
2022-08-25T17:46:47.339Z,28.57
2022-08-25T17:49:17.055Z,28.47
2022-08-25T17:51:43.938Z,28.38
2022-08-25T17:54:11.960Z,28.29
2022-08-25T17:56:39.328Z,28.23
2022-08-25T17:59:06.936Z,28.17
2022-08-25T18:01:40.532Z,28.09
2022-08-25T18:04:17.408Z,28.00
2022-08-25T18:06:48.624Z,27.91
2022-08-25T18:09:15.468Z,27.82
2022-08-25T18:11:42.612Z,27.72
2022-08-25T18:14:11.292Z,27.64
2022-08-25T18:16:38.845Z,27.55
2022-08-25T18:19:06.468Z,27.44
2022-08-25T18:21:37.319Z,27.33
2022-08-25T18:24:06.352Z,27.19
2022-08-25T18:26:33.620Z,27.09
2022-08-25T18:29:01.549Z,27.01
2022-08-25T18:31:28.531Z,26.92
2022-08-25T18:33:55.380Z,26.84
2022-08-25T18:36:22.440Z,26.77
2022-08-25T18:39:08.120Z,26.70
2022-08-25T18:41:38.478Z,26.62
2022-08-25T18:44:07.435Z,26.58
2022-08-25T18:46:35.017Z,26.55
2022-08-25T18:49:02.907Z,26.46
2022-08-25T18:51:33.151Z,26.33
2022-08-25T18:54:01.129Z,26.14
2022-08-25T18:56:28.354Z,26.04
2022-08-25T18:58:57.192Z,26.01
2022-08-25T19:01:24.432Z,26.02
2022-08-25T19:03:51.431Z,26.00
2022-08-25T19:06:19.442Z,25.94
2022-08-25T19:08:47.802Z,25.84
2022-08-25T19:11:15.965Z,25.80
2022-08-25T19:13:43.258Z,25.78
2022-08-25T19:16:13.844Z,25.77
2022-08-25T19:18:45.433Z,25.73
2022-08-25T19:21:12.471Z,25.68
2022-08-25T19:23:39.233Z,25.61
2022-08-25T19:26:08.286Z,25.56
2022-08-25T19:28:45.587Z,25.49
2022-08-25T19:31:18.238Z,25.44
2022-08-25T19:33:46.029Z,25.36
2022-08-25T19:36:13.870Z,25.31
2022-08-25T19:38:40.640Z,25.27
2022-08-25T19:41:12.974Z,25.19
2022-08-25T19:43:56.622Z,25.13
2022-08-25T19:46:32.705Z,25.04
2022-08-25T19:49:06.952Z,24.97
2022-08-25T19:51:34.596Z,24.92
2022-08-25T19:54:02.827Z,24.93
2022-08-25T19:56:29.990Z,24.97
2022-08-25T19:58:57.429Z,25.00
2022-08-25T20:01:26.094Z,25.00
2022-08-25T20:03:52.792Z,25.01
2022-08-25T20:06:19.857Z,25.02
2022-08-25T20:08:46.628Z,24.97
2022-08-25T20:11:26.271Z,24.92
2022-08-25T20:13:53.322Z,24.87
2022-08-25T20:16:20.674Z,24.79
2022-08-25T20:18:48.826Z,24.70
2022-08-25T20:21:15.480Z,24.66
2022-08-25T20:24:00.590Z,24.67
2022-08-25T20:26:29.181Z,24.66
2022-08-25T20:28:56.043Z,24.61
2022-08-25T20:31:22.849Z,24.55
2022-08-25T20:33:51.618Z,24.49
2022-08-25T20:36:19.373Z,24.39
2022-08-25T20:38:46.323Z,24.26
2022-08-25T20:41:13.540Z,24.20
2022-08-25T20:43:41.340Z,24.15
2022-08-25T20:46:09.138Z,24.05
2022-08-25T20:48:36.127Z,23.93
2022-08-25T20:51:06.575Z,23.79
2022-08-25T20:53:35.239Z,23.64
2022-08-25T20:56:02.359Z,23.54
2022-08-25T20:58:29.268Z,23.48
2022-08-25T21:00:56.508Z,23.45
2022-08-25T21:03:23.359Z,23.42
2022-08-25T21:05:53.548Z,23.37
2022-08-25T21:08:23.828Z,23.33
2022-08-25T21:10:52.158Z,23.33
2022-08-25T21:13:18.778Z,23.37
2022-08-25T21:15:48.553Z,23.41
2022-08-25T21:18:15.369Z,23.40
2022-08-25T21:20:42.984Z,23.38
2022-08-25T21:23:09.646Z,23.33
2022-08-25T21:25:41.435Z,23.31
2022-08-25T21:28:08.499Z,23.30
2022-08-25T21:30:35.241Z,23.35
2022-08-25T21:33:02.390Z,23.38
2022-08-25T21:35:29.104Z,23.39
2022-08-25T21:37:56.076Z,23.40
2022-08-25T21:40:23.058Z,23.39
2022-08-25T21:42:52.002Z,23.39
2022-08-25T21:45:21.654Z,23.36
2022-08-25T21:47:48.758Z,23.36
2022-08-25T21:50:15.504Z,23.38
2022-08-25T21:52:42.428Z,23.39
2022-08-25T21:55:15.833Z,23.36
2022-08-25T21:57:43.129Z,23.33
2022-08-25T22:00:14.841Z,23.32
2022-08-25T22:02:43.938Z,23.32
2022-08-25T22:05:11.477Z,23.35
2022-08-25T22:07:42.091Z,23.35
2022-08-25T22:10:16.725Z,23.35
2022-08-25T22:12:44.655Z,23.32
2022-08-25T22:15:15.544Z,23.31
2022-08-25T22:17:42.393Z,23.28
2022-08-25T22:20:10.626Z,23.25
2022-08-25T22:22:37.388Z,23.24
2022-08-25T22:25:05.458Z,23.24
2022-08-25T22:27:32.892Z,23.19
2022-08-25T22:30:00.738Z,23.13
2022-08-25T22:32:28.721Z,23.12
2022-08-25T22:34:55.349Z,23.12
2022-08-25T22:37:22.284Z,23.11
2022-08-25T22:39:49.391Z,23.07
2022-08-25T22:42:16.294Z,23.00
2022-08-25T22:44:42.962Z,22.97
2022-08-25T22:47:11.894Z,22.92
2022-08-25T22:49:40.493Z,22.91
2022-08-25T22:52:09.275Z,22.90
2022-08-25T22:54:38.391Z,22.90
2022-08-25T22:57:06.794Z,22.88
2022-08-25T22:59:34.162Z,22.84
2022-08-25T23:02:01.043Z,22.77
2022-08-25T23:04:27.768Z,22.69
2022-08-25T23:06:56.149Z,22.67
2022-08-25T23:09:24.935Z,22.66
2022-08-25T23:11:51.667Z,22.65
2022-08-25T23:14:18.711Z,22.56
2022-08-25T23:16:45.590Z,22.50
2022-08-25T23:19:14.275Z,22.40
2022-08-25T23:22:00.112Z,22.29
2022-08-25T23:24:30.727Z,22.22
2022-08-25T23:26:59.176Z,22.17
2022-08-25T23:29:27.764Z,22.08
2022-08-25T23:31:55.577Z,22.00
2022-08-25T23:34:23.138Z,21.93
2022-08-25T23:36:50.456Z,21.93
2022-08-25T23:39:17.182Z,21.93
2022-08-25T23:41:45.241Z,21.97
2022-08-25T23:44:17.221Z,22.00
2022-08-25T23:46:44.678Z,22.00
2022-08-25T23:49:11.604Z,22.00
2022-08-25T23:51:38.631Z,22.00
2022-08-25T23:54:07.091Z,22.01
2022-08-25T23:56:37.150Z,21.98
2022-08-25T23:59:10.744Z,21.89
